Blowing Rock, North Carolina
Current Conditions -  °F | °C
As of 9:55 AM on Saturday 20 Dec 2014 (Local Time) from KTNB Reporting Station
Scattered Clouds Scattered Clouds  
Wind Chill: 34°   Ceiling: Unl
Heat Index: 34°   Visibility: 10mi
Dew Point: 27°   Wind: 3mph
Humidity: 75%   Direction: 90°E
Pressure: 30.17"   Gusts: NA
Location:  36.14°N, 81.68°W
Report Text: KTNB 201455Z AUTO 09003KT 10SM SCT013 SCT030 SCT065 01/M03 A3017 RMK AO2 T00121027
Loading
Personal Weather Stations






























Interactive Weather Map New forecast layout! Learn more

10-Day Weather Forecast

Advertisements
Track Severe Weather on mobile